createdAt,value
2024-03-13T00:01:52.962Z,95668.38
2024-03-13T00:04:21.256Z,95667.19
2024-03-13T00:06:48.627Z,95666.28
2024-03-13T00:09:18.747Z,95670.44
2024-03-13T00:11:45.980Z,95659.81
2024-03-13T00:14:13.342Z,95664.13
2024-03-13T00:16:40.580Z,95660.78
2024-03-13T00:19:10.390Z,95657.75
2024-03-13T00:24:08.117Z,95670.25
2024-03-13T00:26:35.375Z,95669.09
2024-03-13T00:29:05.393Z,95672.69
2024-03-13T00:31:32.792Z,95664.44
2024-03-13T00:34:01.934Z,95666.72
2024-03-13T00:36:29.374Z,95646.25
2024-03-13T00:38:59.715Z,95649.56
2024-03-13T00:41:27.148Z,95652.09
2024-03-13T00:43:54.858Z,95640.75
2024-03-13T00:46:30.582Z,95643.38
2024-03-13T00:48:58.414Z,95643.84
2024-03-13T00:51:26.057Z,95646.38
2024-03-13T00:53:53.507Z,95646.63
2024-03-13T00:56:22.394Z,95652.50
2024-03-13T00:58:50.138Z,95647.03
2024-03-13T01:01:23.605Z,95650.91
2024-03-13T01:03:51.216Z,95644.25
2024-03-13T01:06:18.852Z,95645.19
2024-03-13T01:08:46.081Z,95637.97
2024-03-13T01:11:13.331Z,95639.28
2024-03-13T01:13:40.729Z,95644.25
2024-03-13T01:16:12.150Z,95642.00
2024-03-13T01:18:39.429Z,95646.81
2024-03-13T01:21:06.745Z,95635.88
2024-03-13T01:23:34.078Z,95644.06
2024-03-13T01:26:05.917Z,95636.78
2024-03-13T01:28:33.168Z,95640.31
2024-03-13T01:31:00.651Z,95635.97
2024-03-13T01:33:29.770Z,95630.19
2024-03-13T01:35:56.996Z,95625.69
2024-03-13T01:38:24.328Z,95626.38
2024-03-13T01:41:10.300Z,95614.41
2024-03-13T01:43:56.217Z,95616.72
2024-03-13T01:46:42.064Z,95615.56
2024-03-13T01:49:36.741Z,95613.19
2024-03-13T01:52:26.089Z,95607.31
2024-03-13T01:55:05.459Z,95605.97
2024-03-13T01:57:47.050Z,95604.41
2024-03-13T02:00:34.165Z,95601.03
2024-03-13T02:03:01.438Z,95606.88
2024-03-13T02:05:28.845Z,95603.88
2024-03-13T02:07:56.227Z,95602.75
2024-03-13T02:10:23.513Z,95591.53
2024-03-13T02:13:04.471Z,95591.34
2024-03-13T02:15:32.234Z,95589.19
2024-03-13T02:18:04.140Z,95577.09
2024-03-13T02:20:34.361Z,95576.34
2024-03-13T02:23:05.755Z,95576.06
2024-03-13T02:25:33.228Z,95578.28
2024-03-13T02:28:01.484Z,95577.19
2024-03-13T02:30:28.892Z,95576.06
2024-03-13T02:32:56.582Z,95575.63
2024-03-13T02:35:23.881Z,95570.94
2024-03-13T02:37:51.128Z,95574.00
2024-03-13T02:40:18.449Z,95569.53
2024-03-13T02:42:46.182Z,95569.88
2024-03-13T02:45:15.575Z,95570.78
2024-03-13T02:47:43.070Z,95571.22
2024-03-13T02:50:12.961Z,95562.56
2024-03-13T02:52:40.767Z,95562.75
2024-03-13T02:55:08.682Z,95565.03
2024-03-13T02:57:36.045Z,95563.25
2024-03-13T03:00:07.429Z,95558.44
2024-03-13T03:02:36.217Z,95550.72
2024-03-13T03:05:06.784Z,95548.19
2024-03-13T03:07:34.974Z,95559.13
2024-03-13T03:10:02.352Z,95551.84
2024-03-13T03:12:29.690Z,95553.72
2024-03-13T03:14:56.944Z,95553.00
2024-03-13T03:17:24.234Z,95558.00
2024-03-13T03:19:52.097Z,95556.97
2024-03-13T03:22:20.003Z,95568.03
2024-03-13T03:24:48.390Z,95558.44
2024-03-13T03:27:15.732Z,95562.97
2024-03-13T03:29:43.060Z,95560.69
2024-03-13T03:32:10.444Z,95560.69
2024-03-13T03:34:37.876Z,95555.91
2024-03-13T03:37:05.251Z,95556.56
2024-03-13T03:39:39.361Z,95550.66
2024-03-13T03:42:07.788Z,95551.78
2024-03-13T03:44:35.085Z,95557.19
2024-03-13T03:47:02.385Z,95560.66
2024-03-13T03:49:29.650Z,95564.09
2024-03-13T03:51:57.035Z,95568.84
2024-03-13T03:54:24.581Z,95563.38
2024-03-13T03:56:52.972Z,95567.34
2024-03-13T03:59:20.243Z,95569.41
2024-03-13T04:01:47.631Z,95560.06
2024-03-13T04:04:15.108Z,95563.13
2024-03-13T04:06:42.732Z,95575.78
2024-03-13T04:09:16.157Z,95576.44
2024-03-13T04:11:44.125Z,95569.41
2024-03-13T04:14:15.040Z,95563.53
2024-03-13T04:16:44.630Z,95566.06
2024-03-13T04:19:15.489Z,95564.25
2024-03-13T04:21:44.076Z,95569.28
2024-03-13T04:24:11.514Z,95572.13
2024-03-13T04:26:42.469Z,95570.84
2024-03-13T04:29:12.150Z,95574.94
2024-03-13T04:31:41.591Z,95571.91
2024-03-13T04:34:11.360Z,95565.44
2024-03-13T04:36:42.309Z,95569.78
2024-03-13T04:39:09.677Z,95569.13
2024-03-13T04:41:40.843Z,95570.06
2024-03-13T04:44:11.632Z,95569.78
2024-03-13T04:46:44.487Z,95573.16
2024-03-13T04:49:12.516Z,95569.22
2024-03-13T04:51:40.022Z,95579.59
2024-03-13T04:54:10.224Z,95577.56
2024-03-13T04:56:38.481Z,95575.69
2024-03-13T04:59:05.896Z,95575.66
2024-03-13T05:01:33.244Z,95583.84
2024-03-13T05:04:00.713Z,95591.72
2024-03-13T05:06:27.953Z,95594.34
2024-03-13T05:08:56.034Z,95591.81
2024-03-13T05:11:23.522Z,95597.63
2024-03-13T05:13:50.825Z,95602.19
2024-03-13T05:16:20.055Z,95602.84
2024-03-13T05:18:49.551Z,95602.47
2024-03-13T05:21:19.599Z,95604.69
2024-03-13T05:23:47.129Z,95595.03
2024-03-13T05:26:14.368Z,95595.59
2024-03-13T05:28:41.654Z,95598.41
2024-03-13T05:31:11.266Z,95599.44
2024-03-13T05:33:41.498Z,95598.06
2024-03-13T05:36:12.357Z,95601.91
2024-03-13T05:38:40.051Z,95606.31
2024-03-13T05:41:07.461Z,95609.53
2024-03-13T05:43:34.735Z,95611.41
2024-03-13T05:46:02.722Z,95603.50
2024-03-13T05:48:32.005Z,95600.56
2024-03-13T05:50:59.264Z,95601.91
2024-03-13T05:53:26.485Z,95607.69
2024-03-13T05:55:53.756Z,95608.19
2024-03-13T05:58:21.685Z,95614.97
2024-03-13T06:00:49.705Z,95620.44
2024-03-13T06:03:17.015Z,95613.19
2024-03-13T06:05:44.336Z,95620.50
2024-03-13T06:08:13.871Z,95622.91
2024-03-13T06:10:41.264Z,95620.25
2024-03-13T06:13:08.719Z,95628.91
2024-03-13T06:15:36.316Z,95627.59
2024-03-13T06:18:03.768Z,95632.66
2024-03-13T06:20:32.003Z,95634.00
2024-03-13T06:23:00.080Z,95632.31
2024-03-13T06:25:29.341Z,95631.88
2024-03-13T06:28:16.749Z,95625.34
2024-03-13T06:30:44.067Z,95633.06
2024-03-13T06:33:12.487Z,95623.91
2024-03-13T06:35:40.744Z,95635.69
2024-03-13T06:38:08.111Z,95626.56
2024-03-13T06:40:35.581Z,95634.41
2024-03-13T06:43:03.153Z,95641.22
2024-03-13T06:45:38.542Z,95637.34
2024-03-13T06:48:07.474Z,95632.91
2024-03-13T06:50:36.176Z,95630.31
2024-03-13T06:53:04.191Z,95634.16
2024-03-13T06:55:31.883Z,95642.97
2024-03-13T06:57:59.379Z,95648.44
2024-03-13T07:00:29.474Z,95652.34
2024-03-13T07:02:58.013Z,95655.81
2024-03-13T07:05:25.246Z,95658.16
2024-03-13T07:07:59.802Z,95656.50
2024-03-13T07:10:27.102Z,95656.84
2024-03-13T07:12:56.913Z,95652.28
2024-03-13T07:15:24.171Z,95651.16
2024-03-13T07:17:51.597Z,95661.34
2024-03-13T07:20:18.892Z,95652.63
2024-03-13T07:22:46.121Z,95654.41
2024-03-13T07:25:13.679Z,95656.31
2024-03-13T07:27:41.299Z,95656.31
2024-03-13T07:30:09.196Z,95653.34
2024-03-13T07:32:36.948Z,95646.00
2024-03-13T07:35:05.478Z,95657.53
2024-03-13T07:37:33.228Z,95664.94
2024-03-13T07:40:01.153Z,95660.75
2024-03-13T07:42:28.490Z,95652.47
2024-03-13T07:44:56.108Z,95660.44
2024-03-13T07:47:23.576Z,95661.16
2024-03-13T07:49:51.070Z,95657.09
2024-03-13T07:52:18.596Z,95659.47
2024-03-13T07:54:46.045Z,95651.47
2024-03-13T07:57:13.525Z,95652.91
2024-03-13T07:59:42.054Z,95653.63
2024-03-13T08:02:09.932Z,95652.78
2024-03-13T08:04:37.666Z,95661.97
2024-03-13T09:07:42.918Z,95709.78
2024-03-13T09:10:13.610Z,95702.72
2024-03-13T09:12:41.163Z,95708.53
2024-03-13T09:15:09.004Z,95706.03
2024-03-13T09:17:36.862Z,95707.06
2024-03-13T09:20:04.884Z,95707.06
2024-03-13T09:22:32.174Z,95707.53
2024-03-13T09:24:59.634Z,95710.28
2024-03-13T09:27:26.980Z,95721.00
2024-03-13T09:29:54.244Z,95717.13
2024-03-13T09:32:22.651Z,95713.91
2024-03-13T09:34:51.890Z,95708.41
2024-03-13T09:37:20.413Z,95714.47
2024-03-13T09:39:47.747Z,95708.78
2024-03-13T09:42:18.570Z,95710.28
2024-03-13T09:44:47.366Z,95718.94
2024-03-13T09:47:15.629Z,95713.22
2024-03-13T09:49:46.574Z,95718.03
2024-03-13T09:52:14.045Z,95719.84
2024-03-13T09:54:42.328Z,95714.91
2024-03-13T09:57:14.014Z,95708.63
2024-03-13T09:59:42.574Z,95721.66
2024-03-13T10:02:17.370Z,95717.31
2024-03-13T10:04:46.454Z,95728.50
2024-03-13T10:07:23.031Z,95724.19
2024-03-13T10:09:50.484Z,95723.28
2024-03-13T10:12:21.813Z,95726.34
2024-03-13T10:14:54.238Z,95725.69
2024-03-13T10:17:28.474Z,95718.59
2024-03-13T10:19:56.868Z,95723.84
2024-03-13T10:22:27.013Z,95721.00
2024-03-13T10:24:56.268Z,95714.41
2024-03-13T10:27:24.755Z,95715.03
2024-03-13T10:29:54.633Z,95716.66
2024-03-13T10:32:23.997Z,95709.69
2024-03-13T10:34:51.946Z,95709.69
2024-03-13T10:37:20.757Z,95701.47
2024-03-13T10:39:48.129Z,95713.53
2024-03-13T10:42:15.458Z,95707.50
2024-03-13T10:44:43.318Z,95713.00
2024-03-13T10:47:10.917Z,95708.63
2024-03-13T10:49:38.377Z,95708.28
2024-03-13T10:52:11.016Z,95709.94
2024-03-13T10:54:38.328Z,95709.25
2024-03-13T10:57:06.314Z,95706.06
2024-03-13T10:59:34.581Z,95715.00
2024-03-13T11:02:04.539Z,95709.34
2024-03-13T11:04:34.838Z,95704.72
2024-03-13T11:07:02.062Z,95697.75
2024-03-13T11:09:29.388Z,95701.75
2024-03-13T11:12:00.496Z,95706.75
2024-03-13T11:14:28.971Z,95702.78
2024-03-13T11:17:04.097Z,95704.25
2024-03-13T11:19:34.386Z,95716.59
2024-03-13T11:22:04.872Z,95707.63
2024-03-13T11:24:33.587Z,95705.41
2024-03-13T11:27:08.806Z,95703.31
2024-03-13T11:29:44.523Z,95702.34
2024-03-13T11:32:14.371Z,95699.56
2024-03-13T11:34:44.726Z,95699.38
2024-03-13T11:37:13.220Z,95708.38
2024-03-13T11:39:41.743Z,95701.75
2024-03-13T11:42:15.661Z,95699.94
2024-03-13T11:44:45.462Z,95708.28
2024-03-13T11:47:13.347Z,95700.03
2024-03-13T11:49:42.403Z,95694.28
2024-03-13T11:52:16.499Z,95698.88
2024-03-13T11:54:47.503Z,95697.97
2024-03-13T11:57:16.262Z,95693.13
2024-03-13T11:59:51.507Z,95687.53
2024-03-13T12:02:34.760Z,95681.25
2024-03-13T12:05:06.256Z,95687.91
2024-03-13T12:07:37.651Z,95682.44
2024-03-13T12:10:05.419Z,95679.47
2024-03-13T12:12:33.499Z,95674.66
2024-03-13T12:15:01.338Z,95673.00
2024-03-13T12:17:28.716Z,95670.72
2024-03-13T12:19:57.377Z,95669.47
2024-03-13T12:22:25.634Z,95667.78
2024-03-13T12:24:55.915Z,95666.72
2024-03-13T12:27:26.108Z,95670.66
2024-03-13T12:29:55.709Z,95665.31
2024-03-13T12:32:25.976Z,95660.03
2024-03-13T12:34:53.444Z,95650.63
2024-03-13T12:37:20.646Z,95658.91
2024-03-13T12:39:48.540Z,95647.59
2024-03-13T12:42:15.823Z,95660.16
2024-03-13T12:44:44.509Z,95644.56
2024-03-13T12:47:13.712Z,95645.09
2024-03-13T12:49:42.248Z,95652.53
2024-03-13T12:52:14.032Z,95647.75
2024-03-13T12:54:41.655Z,95650.31
2024-03-13T12:57:12.400Z,95647.75
2024-03-13T12:59:54.961Z,95648.19
2024-03-13T13:02:23.525Z,95646.50
2024-03-13T13:04:50.861Z,95636.22
2024-03-13T13:07:20.491Z,95640.56
2024-03-13T13:09:51.375Z,95639.22
2024-03-13T13:12:21.863Z,95635.50
2024-03-13T13:14:49.227Z,95633.66
2024-03-13T13:17:16.580Z,95632.63
2024-03-13T13:19:43.848Z,95630.78
2024-03-13T13:22:13.206Z,95628.59
2024-03-13T13:24:40.455Z,95634.06
2024-03-13T13:27:09.357Z,95627.44
2024-03-13T13:29:38.133Z,95626.84
2024-03-13T13:32:07.101Z,95613.00
2024-03-13T13:34:34.673Z,95621.34
2024-03-13T13:37:01.957Z,95623.97
2024-03-13T13:39:29.241Z,95620.50
2024-03-13T13:41:56.961Z,95622.63
2024-03-13T13:44:24.372Z,95620.50
2024-03-13T13:46:51.899Z,95618.94
2024-03-13T13:49:19.164Z,95615.75
2024-03-13T13:51:46.457Z,95615.41
2024-03-13T13:54:13.787Z,95621.88
2024-03-13T13:56:41.165Z,95625.41
2024-03-13T13:59:09.054Z,95621.16
2024-03-13T14:01:37.003Z,95615.84
2024-03-13T14:04:07.458Z,95622.94
2024-03-13T14:06:36.668Z,95613.81
2024-03-13T14:09:04.509Z,95600.78
2024-03-13T14:11:32.205Z,95620.97
2024-03-13T14:14:01.488Z,95614.19
2024-03-13T14:16:29.510Z,95616.78
2024-03-13T14:18:57.851Z,95615.09
2024-03-13T14:21:25.281Z,95612.75
2024-03-13T14:23:52.749Z,95623.25
2024-03-13T14:26:21.102Z,95619.88
2024-03-13T14:28:48.986Z,95618.59
2024-03-13T14:31:17.164Z,95619.47
2024-03-13T14:33:44.767Z,95621.06
2024-03-13T14:36:13.132Z,95617.22
2024-03-13T14:38:43.609Z,95623.94
2024-03-13T14:41:13.889Z,95626.78
2024-03-13T14:43:43.983Z,95622.50
2024-03-13T14:46:11.257Z,95622.28
2024-03-13T14:48:38.646Z,95620.59
2024-03-13T14:51:06.453Z,95610.69
2024-03-13T14:53:33.771Z,95616.28
2024-03-13T14:56:01.130Z,95619.69
2024-03-13T14:58:37.130Z,95622.00
2024-03-13T15:01:05.062Z,95615.81
2024-03-13T15:03:34.928Z,95626.56
2024-03-13T15:06:02.307Z,95618.16
2024-03-13T15:08:29.622Z,95620.97
2024-03-13T15:10:56.967Z,95619.75
2024-03-13T15:13:24.280Z,95623.44
2024-03-13T15:15:54.406Z,95633.28
2024-03-13T15:18:24.963Z,95620.00
2024-03-13T15:20:53.201Z,95620.63
2024-03-13T15:23:20.717Z,95615.16
2024-03-13T15:25:49.865Z,95616.19
2024-03-13T15:28:18.041Z,95627.19
2024-03-13T15:30:46.074Z,95616.91
2024-03-13T15:33:17.133Z,95620.63
2024-03-13T15:35:45.307Z,95619.84
2024-03-13T15:38:12.696Z,95626.38
2024-03-13T15:40:40.089Z,95627.50
2024-03-13T15:43:09.163Z,95629.41
2024-03-13T15:45:36.560Z,95631.06
2024-03-13T15:48:05.514Z,95627.50
2024-03-13T15:50:36.282Z,95625.25
2024-03-13T15:53:05.365Z,95637.28
2024-03-13T15:55:32.684Z,95641.34
2024-03-13T15:58:00.277Z,95645.72
2024-03-13T16:00:28.200Z,95637.56
2024-03-13T16:03:00.186Z,95635.88
2024-03-13T16:05:28.228Z,95642.97
2024-03-13T16:08:16.643Z,95636.66
2024-03-13T16:10:45.930Z,95640.22
2024-03-13T16:13:13.319Z,95637.38
2024-03-13T16:15:41.283Z,95639.31
2024-03-13T16:18:11.753Z,95641.03
2024-03-13T16:20:39.648Z,95647.31
2024-03-13T16:23:08.529Z,95639.25
2024-03-13T16:25:36.111Z,95647.94
2024-03-13T16:28:03.797Z,95644.91
2024-03-13T16:30:31.088Z,95645.72
2024-03-13T16:32:58.452Z,95656.63
2024-03-13T16:35:25.922Z,95654.75
2024-03-13T16:37:53.285Z,95658.03
2024-03-13T16:40:20.520Z,95660.53
2024-03-13T16:42:48.821Z,95656.63
2024-03-13T16:45:19.070Z,95653.69
2024-03-13T16:47:46.836Z,95654.50
2024-03-13T16:50:18.015Z,95653.53
2024-03-13T16:52:45.578Z,95659.47
2024-03-13T16:55:13.030Z,95664.59
2024-03-13T16:57:41.487Z,95664.34
2024-03-13T17:00:16.180Z,95667.50
2024-03-13T17:02:45.443Z,95676.56
2024-03-13T17:05:15.546Z,95669.50
2024-03-13T17:07:43.472Z,95664.34
2024-03-13T17:10:11.102Z,95674.72
2024-03-13T17:12:39.664Z,95668.50
2024-03-13T17:15:07.840Z,95679.03
2024-03-13T17:17:35.709Z,95677.97
2024-03-13T17:20:07.854Z,95678.50
2024-03-13T17:22:35.681Z,95690.44
2024-03-13T17:25:05.113Z,95686.28
2024-03-13T17:27:33.325Z,95683.03
2024-03-13T17:30:01.038Z,95682.66
2024-03-13T17:32:28.408Z,95690.47
2024-03-13T17:34:58.149Z,95696.75
2024-03-13T17:37:28.721Z,95693.47
2024-03-13T17:39:57.458Z,95701.50
2024-03-13T17:42:24.983Z,95702.94
2024-03-13T17:44:52.308Z,95704.44
2024-03-13T17:47:19.720Z,95699.38
2024-03-13T17:49:49.088Z,95707.47
2024-03-13T17:52:16.404Z,95701.16
2024-03-13T17:54:43.769Z,95713.59
2024-03-13T17:57:11.151Z,95711.75
2024-03-13T17:59:42.342Z,95722.13
2024-03-13T18:02:12.976Z,95722.13
2024-03-13T18:04:41.086Z,95728.31
2024-03-13T18:07:12.061Z,95726.91
2024-03-13T18:09:41.546Z,95726.22
2024-03-13T18:12:10.392Z,95732.63
2024-03-13T18:14:38.040Z,95726.22
2024-03-13T18:17:05.893Z,95731.72
2024-03-13T18:19:33.415Z,95731.47
2024-03-13T18:22:00.741Z,95736.22
2024-03-13T18:24:28.108Z,95735.66
2024-03-13T18:26:55.441Z,95730.34
2024-03-13T18:29:22.736Z,95728.09
2024-03-13T18:31:51.798Z,95729.16
2024-03-13T18:34:19.600Z,95730.63
2024-03-13T18:36:49.005Z,95732.00
2024-03-13T18:39:18.968Z,95733.56
2024-03-13T18:41:46.653Z,95730.13
2024-03-13T18:44:13.964Z,95732.22
2024-03-13T18:46:41.248Z,95737.72
2024-03-13T18:49:11.718Z,95729.59
2024-03-13T18:51:39.418Z,95733.09
2024-03-13T18:54:06.878Z,95738.59
2024-03-13T18:56:36.450Z,95736.56
2024-03-13T18:59:05.528Z,95743.69
2024-03-13T19:01:33.591Z,95742.84
2024-03-13T19:04:00.985Z,95743.66
2024-03-13T19:06:28.360Z,95744.19
2024-03-13T19:08:55.757Z,95750.50
2024-03-13T19:11:23.066Z,95739.28
2024-03-13T19:13:50.350Z,95743.38
2024-03-13T19:16:18.351Z,95740.31
2024-03-13T19:18:46.448Z,95745.00
2024-03-13T19:21:13.935Z,95755.53
2024-03-13T19:23:42.595Z,95759.16
2024-03-13T19:26:09.936Z,95752.91
2024-03-13T19:28:38.961Z,95755.28
2024-03-13T19:31:10.219Z,95752.09
2024-03-13T19:33:39.054Z,95748.19
2024-03-13T19:36:07.152Z,95755.19
2024-03-13T19:38:34.518Z,95755.06
2024-03-13T19:41:01.804Z,95752.69
2024-03-13T19:43:29.786Z,95755.53
2024-03-13T19:45:59.859Z,95762.16
2024-03-13T19:48:27.450Z,95751.88
2024-03-13T19:50:54.938Z,95752.69
2024-03-13T19:53:22.366Z,95758.78
2024-03-13T19:55:49.608Z,95750.09
2024-03-13T19:58:17.004Z,95754.19
2024-03-13T20:00:44.963Z,95758.19
2024-03-13T20:03:13.194Z,95761.88
2024-03-13T20:05:40.696Z,95760.38
2024-03-13T20:08:08.128Z,95761.78
2024-03-13T20:10:35.405Z,95761.31
2024-03-13T20:13:04.300Z,95755.59
2024-03-13T20:15:31.695Z,95759.91
2024-03-13T20:17:58.986Z,95757.44
2024-03-13T20:20:28.068Z,95758.66
2024-03-13T20:22:56.106Z,95750.69
2024-03-13T20:25:23.492Z,95754.78
2024-03-13T20:27:51.020Z,95756.97
2024-03-13T20:30:18.595Z,95746.09
2024-03-13T20:32:46.395Z,95754.78
2024-03-13T20:35:13.998Z,95756.97
2024-03-13T20:37:41.499Z,95752.38
2024-03-13T20:40:13.790Z,95757.63
2024-03-13T20:42:44.767Z,95761.09
2024-03-13T20:45:12.352Z,95758.38
2024-03-13T20:47:39.933Z,95749.88
2024-03-13T20:50:10.461Z,95767.28
2024-03-13T20:52:38.944Z,95752.28
2024-03-13T20:55:10.501Z,95757.31
2024-03-13T20:57:39.150Z,95760.06
2024-03-13T21:00:14.803Z,95758.03
2024-03-13T21:02:44.495Z,95760.59
2024-03-13T21:05:12.809Z,95768.47
2024-03-13T21:07:40.414Z,95757.06
2024-03-13T21:10:10.233Z,95754.97
2024-03-13T21:12:40.496Z,95762.25
2024-03-13T21:15:11.506Z,95763.66
2024-03-13T21:17:38.939Z,95763.19
2024-03-13T21:20:11.196Z,95757.47
2024-03-13T21:22:41.938Z,95760.69
2024-03-13T21:25:09.356Z,95754.31
2024-03-13T21:27:40.011Z,95754.53
2024-03-13T21:30:11.035Z,95754.97
2024-03-13T21:32:38.690Z,95752.22
2024-03-13T21:35:07.598Z,95756.34
2024-03-13T21:37:35.265Z,95754.97
2024-03-13T21:40:07.357Z,95756.78
2024-03-13T21:42:34.806Z,95753.72
2024-03-13T21:45:02.294Z,95758.66
2024-03-13T21:47:29.588Z,95752.47
2024-03-13T21:49:57.564Z,95758.66
2024-03-13T21:52:27.700Z,95747.91
2024-03-13T21:54:57.960Z,95752.00
2024-03-13T21:57:25.229Z,95747.56
2024-03-13T21:59:52.535Z,95755.00
2024-03-13T22:02:20.286Z,95753.88
2024-03-13T22:04:50.420Z,95754.06
2024-03-13T22:07:18.689Z,95756.81
2024-03-13T22:09:45.918Z,95748.81
2024-03-13T22:12:14.831Z,95752.69
2024-03-13T22:14:45.214Z,95755.22
2024-03-13T22:17:12.515Z,95751.09
2024-03-13T22:19:43.564Z,95749.03
2024-03-13T22:22:12.269Z,95748.81
2024-03-13T22:24:39.568Z,95755.69
2024-03-13T22:27:07.317Z,95752.69
2024-03-13T22:29:34.734Z,95752.00
2024-03-13T22:32:02.014Z,95751.09
2024-03-13T22:34:29.246Z,95755.22
2024-03-13T22:36:56.658Z,95751.56
2024-03-13T22:39:23.999Z,95751.00
2024-03-13T22:41:51.461Z,95750.22
2024-03-13T22:44:18.812Z,95761.63
2024-03-13T22:46:46.015Z,95752.56
2024-03-13T22:49:13.306Z,95756.34
2024-03-13T22:51:40.555Z,95760.00
2024-03-13T22:54:11.183Z,95757.47
2024-03-13T22:56:38.612Z,95749.91
2024-03-13T22:59:06.502Z,95756.38
2024-03-13T23:01:33.974Z,95755.91
2024-03-13T23:04:01.164Z,95761.16
2024-03-13T23:06:28.634Z,95754.53
2024-03-13T23:08:58.187Z,95759.91
2024-03-13T23:11:25.676Z,95759.09
2024-03-13T23:13:55.090Z,95757.16
2024-03-13T23:16:22.554Z,95748.50
2024-03-13T23:18:50.702Z,95747.00
2024-03-13T23:21:21.737Z,95746.31
2024-03-13T23:23:52.998Z,95745.41
2024-03-13T23:26:20.757Z,95742.41
2024-03-13T23:28:48.069Z,95743.31
2024-03-13T23:31:16.382Z,95750.97
2024-03-13T23:33:45.599Z,95743.31
2024-03-13T23:36:13.828Z,95740.22
2024-03-13T23:38:41.665Z,95747.31
2024-03-13T23:41:17.168Z,95748.13
2024-03-13T23:43:44.920Z,95743.06
2024-03-13T23:46:16.111Z,95741.50
2024-03-13T23:48:44.308Z,95739.66
2024-03-13T23:51:15.392Z,95735.66
2024-03-13T23:53:42.938Z,95731.91
2024-03-13T23:56:11.256Z,95735.78
2024-03-13T23:58:38.487Z,95741.72
